Shevlin, MN (56676)

8:18 AM CDT on August 25, 2016 (GMT -0500)
Shevlin | | Change Station

Elev 1486 ft 47.53 °N, 95.29 °W | Updated 2 seconds ago

Overcast
Overcast
56.1 °F
Feels Like 56.1 °F
N
3.6
Wind Variable Wind from WNW
Gusts 4.9 mph

Today
High -- | Low -- °F
--% Chance of Precip.
Yesterday
High -- | Low -- °F
Precip. -- in
Pressure 29.94 in
Visibility 10.0 miles
Clouds Overcast 1000 ft
Dew Point 54 °F
Humidity 92%
Rainfall 0.00 in
Snow Depth Not available.
6:31 AM 8:13 PM
Last Quarter, 45% visible
METAR KBJI 251313Z AUTO 24008KT 10SM OVC010 13/12 A2994 RMK AO2 T01330115
Pressure 29.94 in
Visibility 10.0 miles
Clouds Overcast 1000 ft
Dew Point 54 °F
Humidity 92%
Rainfall 0.00 in
Snow Depth Not available.
6:31 AM 8:13 PM
Last Quarter, 45% visible
METAR KBJI 251313Z AUTO 24008KT 10SM OVC010 13/12 A2994 RMK AO2 T01330115

10-Day Weather Forecast

Almanac

Astronomy

Aug. 25, 2016 Rise Set
Actual Time
Civil Twilight
Nautical Twilight
Astronomical Twilight
Moon
Length of Visible Light
Length of Day
Tomorrow will be .
, % of the Moon is Illuminated

Today's Extremes

State Highs State Lows

Community

WunderPhotos

Upload Photos

1,934,842 photos uploaded!

WunderBlog® & News

Nearby

Air Quality

  Air Quality AQ Index Pollutant
Not available.

Snow Depth

Station Depth Elevation

Earthquake Activity

City Distance Mag. Time & Date
Minimum magnitude displayed is 2.5.

Coastal Water Temperatures

Place Temperature

Stations

Nearby Weather Stations

Station Location Temp. Windchill Dew Point Humidity Wind Precip. Elev Updated Type
                   

Watches & Warnings

There are currently no watches in effect.